createdAt,value
2022-10-16T00:01:29.552Z,1.08
2022-10-16T00:03:58.857Z,1.00
2022-10-16T00:06:28.816Z,1.00
2022-10-16T00:11:27.005Z,1.20
2022-10-16T00:14:01.310Z,1.00
2022-10-16T00:16:30.120Z,0.88
2022-10-16T00:18:59.058Z,1.00
2022-10-16T00:21:29.038Z,0.95
2022-10-16T00:24:00.452Z,1.00
2022-10-16T00:26:30.337Z,1.08
2022-10-16T00:31:28.515Z,1.20
2022-10-16T00:36:27.238Z,1.02
2022-10-16T00:38:57.045Z,1.20
2022-10-16T00:41:26.409Z,1.10
2022-10-16T00:43:56.440Z,1.20
2022-10-16T00:46:28.576Z,1.00
2022-10-16T00:49:01.475Z,1.00
2022-10-16T00:51:34.735Z,1.20
2022-10-16T00:54:04.383Z,1.10
2022-10-16T00:56:34.400Z,0.90
2022-10-16T00:59:05.968Z,1.00
2022-10-16T01:01:35.539Z,1.05
2022-10-16T01:04:03.664Z,0.98
2022-10-16T01:06:41.335Z,0.90
2022-10-16T01:09:19.603Z,1.10
2022-10-16T01:11:56.851Z,0.90
2022-10-16T01:14:31.030Z,0.95
2022-10-16T01:17:06.865Z,1.00
2022-10-16T01:19:52.189Z,0.98
2022-10-16T01:22:26.324Z,0.90
2022-10-16T01:24:57.583Z,1.00
2022-10-16T01:27:30.055Z,0.80
2022-10-16T01:30:03.864Z,0.75
2022-10-16T01:32:37.410Z,1.15
2022-10-16T01:35:11.736Z,0.85
2022-10-16T01:37:43.700Z,0.93
2022-10-16T01:40:14.906Z,0.90
2022-10-16T01:42:48.878Z,1.10
2022-10-16T01:45:20.340Z,0.98
2022-10-16T01:47:50.223Z,1.20
2022-10-16T01:50:21.087Z,1.02
2022-10-16T01:52:53.074Z,0.90
2022-10-16T01:55:26.763Z,0.90
2022-10-16T01:57:58.001Z,0.80
2022-10-16T02:00:26.899Z,0.95
2022-10-16T02:02:56.938Z,0.82
2022-10-16T02:05:30.392Z,0.80
2022-10-16T02:08:00.509Z,0.80
2022-10-16T02:10:32.923Z,0.90
2022-10-16T02:15:32.783Z,1.00
2022-10-16T02:18:01.106Z,0.90
2022-10-16T02:20:31.982Z,0.90
2022-10-16T02:23:01.688Z,0.82
2022-10-16T02:25:32.747Z,0.80
2022-10-16T02:28:08.477Z,0.80
2022-10-16T02:30:41.897Z,0.80
2022-10-16T02:33:15.657Z,0.70
2022-10-16T02:35:45.906Z,0.90
2022-10-16T02:38:15.112Z,0.68
2022-10-16T02:40:43.748Z,0.70
2022-10-16T02:43:13.590Z,0.60
2022-10-16T02:45:42.074Z,0.73
2022-10-16T02:48:10.436Z,0.70
2022-10-16T02:50:38.630Z,0.70
2022-10-16T02:53:06.845Z,0.80
2022-10-16T02:55:35.038Z,0.50
2022-10-16T02:58:03.134Z,0.68
2022-10-16T03:00:32.598Z,0.68
2022-10-16T03:03:00.707Z,0.60
2022-10-16T03:05:28.809Z,0.52
2022-10-16T03:07:56.948Z,0.50
2022-10-16T03:10:25.124Z,0.80
2022-10-16T03:12:53.245Z,0.70
2022-10-16T03:15:21.387Z,0.70
2022-10-16T03:17:50.861Z,0.60
2022-10-16T03:20:19.110Z,0.50
2022-10-16T03:22:47.224Z,0.60
2022-10-16T03:25:15.480Z,0.60
2022-10-16T03:27:43.565Z,0.73
2022-10-16T03:30:12.489Z,0.50
2022-10-16T03:32:40.591Z,0.60
2022-10-16T03:35:10.572Z,0.65
2022-10-16T03:40:07.543Z,0.60
2022-10-16T03:42:35.617Z,0.50
2022-10-16T03:45:03.722Z,0.60
2022-10-16T03:47:34.098Z,0.50
2022-10-16T03:50:02.467Z,0.63
2022-10-16T03:52:33.202Z,0.43
2022-10-16T03:55:01.386Z,0.50
2022-10-16T03:57:29.742Z,0.57
2022-10-16T03:59:58.163Z,0.80
2022-10-16T04:02:26.250Z,0.55
2022-10-16T04:04:54.530Z,0.65
2022-10-16T04:07:22.818Z,0.50
2022-10-16T04:09:53.202Z,0.50
2022-10-16T04:12:21.309Z,0.60
2022-10-16T04:14:49.458Z,0.60
2022-10-16T04:17:17.508Z,0.43
2022-10-16T04:19:45.593Z,0.60
2022-10-16T04:22:13.728Z,0.50
2022-10-16T04:24:42.430Z,0.60
2022-10-16T04:27:11.893Z,0.43
2022-10-16T04:29:39.989Z,0.65
2022-10-16T04:32:09.801Z,0.50
2022-10-16T04:34:39.120Z,0.45
2022-10-16T04:37:07.257Z,0.85
2022-10-16T04:39:35.471Z,1.20
2022-10-16T04:42:03.685Z,0.60
2022-10-16T04:44:33.165Z,0.70
2022-10-16T04:47:01.240Z,1.00
2022-10-16T04:49:29.361Z,0.75
2022-10-16T04:51:57.581Z,0.80
2022-10-16T04:54:25.616Z,0.93
2022-10-16T04:56:53.704Z,0.50
2022-10-16T04:59:22.214Z,1.42
2022-10-16T05:01:51.752Z,0.80
2022-10-16T05:04:19.790Z,0.60
2022-10-16T05:06:47.984Z,0.70
2022-10-16T05:09:16.059Z,0.75
2022-10-16T05:11:44.182Z,0.60
2022-10-16T05:14:12.371Z,0.50
2022-10-16T05:16:40.526Z,0.70
2022-10-16T05:19:39.834Z,0.60
2022-10-16T05:21:58.446Z,0.57
2022-10-16T05:24:26.560Z,0.73
2022-10-16T05:26:54.942Z,0.40
2022-10-16T05:29:23.277Z,0.70
2022-10-16T05:31:53.758Z,0.50
2022-10-16T05:34:23.522Z,1.10
2022-10-16T05:36:51.665Z,0.50
2022-10-16T05:39:19.966Z,0.50
2022-10-16T05:41:48.332Z,0.57
2022-10-16T05:44:16.631Z,0.60
2022-10-16T05:46:44.703Z,0.40
2022-10-16T05:49:12.759Z,0.80
2022-10-16T05:51:42.800Z,0.50
2022-10-16T05:56:39.361Z,0.43
2022-10-16T05:59:07.860Z,0.50
2022-10-16T06:01:36.355Z,0.98
2022-10-16T06:04:04.860Z,0.70
2022-10-16T06:06:33.054Z,0.70
2022-10-16T06:09:02.571Z,1.30
2022-10-16T06:11:33.327Z,0.65
2022-10-16T06:14:07.551Z,0.70
2022-10-16T06:16:36.333Z,0.60
2022-10-16T06:19:07.396Z,0.70
2022-10-16T06:21:35.937Z,0.73
2022-10-16T06:24:05.684Z,0.70
2022-10-16T06:26:34.191Z,0.65
2022-10-16T06:29:02.936Z,0.50
2022-10-16T06:31:34.509Z,0.60
2022-10-16T06:34:05.742Z,0.80
2022-10-16T06:36:34.270Z,0.45
2022-10-16T06:39:02.347Z,0.60
2022-10-16T06:41:32.992Z,0.82
2022-10-16T06:44:01.164Z,0.60
2022-10-16T06:46:29.420Z,0.80
2022-10-16T06:48:57.520Z,0.77
2022-10-16T06:51:26.455Z,0.70
2022-10-16T06:54:04.976Z,0.50
2022-10-16T06:56:39.386Z,0.80
2022-10-16T06:59:07.621Z,0.82
2022-10-16T07:01:37.391Z,0.80
2022-10-16T07:04:05.517Z,0.60
2022-10-16T07:06:35.442Z,0.80
2022-10-16T07:11:34.909Z,0.50
2022-10-16T07:16:32.412Z,0.50
2022-10-16T07:19:02.330Z,0.70
2022-10-16T07:24:02.371Z,0.43
2022-10-16T07:26:32.300Z,0.63
2022-10-16T07:29:02.011Z,0.50
2022-10-16T07:31:30.253Z,0.63
2022-10-16T07:34:00.604Z,0.40
2022-10-16T07:36:29.018Z,0.40
2022-10-16T07:38:59.829Z,0.40
2022-10-16T07:41:29.377Z,0.77
2022-10-16T07:44:01.023Z,0.43
2022-10-16T07:46:31.089Z,0.40
2022-10-16T07:51:28.209Z,0.80
2022-10-16T07:53:56.391Z,0.50
2022-10-16T07:56:24.966Z,0.70
2022-10-16T07:58:53.931Z,0.52
2022-10-16T08:01:22.355Z,0.50
2022-10-16T08:03:53.206Z,0.50
2022-10-16T08:06:26.766Z,0.50
2022-10-16T08:08:56.500Z,0.60
2022-10-16T08:11:25.257Z,0.70
2022-10-16T08:13:53.406Z,0.40
2022-10-16T08:16:21.807Z,0.50
2022-10-16T08:18:52.430Z,0.50
2022-10-16T08:21:22.688Z,0.60
2022-10-16T08:23:54.831Z,1.08
2022-10-16T08:26:27.263Z,1.33
2022-10-16T08:28:56.144Z,2.13
2022-10-16T08:31:24.509Z,1.37
2022-10-16T08:33:53.944Z,0.80
2022-10-16T08:36:22.240Z,0.40
2022-10-16T08:38:51.712Z,0.40
2022-10-16T08:41:50.976Z,0.40
2022-10-16T08:44:38.026Z,0.40
2022-10-16T08:47:15.277Z,0.30
2022-10-16T08:49:54.716Z,0.40
2022-10-16T08:52:22.847Z,0.50
2022-10-16T08:54:59.038Z,0.57
2022-10-16T08:57:28.557Z,0.40
2022-10-16T09:00:01.683Z,0.75
2022-10-16T09:02:35.198Z,0.40
2022-10-16T09:05:33.877Z,0.50
2022-10-16T09:08:13.185Z,0.47
2022-10-16T09:10:52.188Z,0.40
2022-10-16T09:13:28.383Z,0.30
2022-10-16T09:16:03.490Z,0.50
2022-10-16T09:18:39.047Z,0.40
2022-10-16T09:21:16.395Z,0.50
2022-10-16T09:23:44.559Z,0.40
2022-10-16T09:26:15.515Z,0.60
2022-10-16T09:28:44.040Z,0.80
2022-10-16T09:31:19.065Z,1.33
2022-10-16T09:33:52.546Z,0.52
2022-10-16T09:36:24.012Z,0.65
2022-10-16T09:38:54.898Z,0.40
2022-10-16T09:41:26.236Z,0.70
2022-10-16T09:43:57.861Z,0.50
2022-10-16T09:46:30.713Z,0.52
2022-10-16T09:49:01.419Z,0.50
2022-10-16T09:51:33.088Z,0.40
2022-10-16T09:54:03.388Z,0.40
2022-10-16T09:56:34.536Z,0.30
2022-10-16T09:59:05.560Z,0.30
2022-10-16T10:01:39.614Z,0.50
2022-10-16T10:04:08.731Z,0.40
2022-10-16T10:06:42.981Z,0.52
2022-10-16T10:09:21.210Z,0.30
2022-10-16T10:11:55.239Z,0.52
2022-10-16T10:14:37.292Z,0.35
2022-10-16T10:17:14.058Z,0.40
2022-10-16T10:19:44.434Z,0.40
2022-10-16T10:22:27.354Z,0.28
2022-10-16T10:25:01.441Z,0.50
2022-10-16T10:27:41.550Z,0.65
2022-10-16T10:30:20.458Z,0.70
2022-10-16T10:33:04.119Z,0.52
2022-10-16T10:35:41.014Z,0.47
2022-10-16T10:38:27.141Z,0.30
2022-10-16T10:41:07.789Z,0.60
2022-10-16T10:43:47.242Z,0.45
2022-10-16T10:46:24.647Z,0.13
2022-10-16T10:49:07.614Z,0.47
2022-10-16T10:51:44.749Z,0.30
2022-10-16T10:54:22.900Z,0.17
2022-10-16T10:56:59.581Z,0.20
2022-10-16T10:59:57.474Z,0.40
2022-10-16T11:02:33.882Z,0.17
2022-10-16T11:05:25.299Z,0.20
2022-10-16T11:07:59.356Z,0.30
2022-10-16T11:10:36.237Z,0.20
2022-10-16T11:13:18.230Z,0.20
2022-10-16T11:18:28.561Z,0.65
2022-10-16T11:21:00.811Z,0.10
2022-10-16T11:23:32.909Z,0.30
2022-10-16T11:26:08.352Z,0.20
2022-10-16T11:28:42.206Z,0.20
2022-10-16T11:31:16.169Z,0.20
2022-10-16T11:33:49.468Z,0.30
2022-10-16T11:36:22.762Z,0.10
2022-10-16T11:38:57.424Z,0.20
2022-10-16T11:41:34.146Z,0.17
2022-10-16T11:44:16.566Z,0.20
2022-10-16T11:47:08.815Z,0.17
2022-10-16T11:49:43.987Z,0.10
2022-10-16T11:52:19.379Z,0.20
2022-10-16T11:54:52.652Z,0.20
2022-10-16T11:57:26.238Z,0.10
2022-10-16T11:59:59.877Z,0.13
2022-10-16T12:02:46.541Z,0.20
2022-10-16T12:05:24.869Z,0.20
2022-10-16T12:08:03.887Z,0.20
2022-10-16T12:13:37.262Z,0.10
2022-10-16T12:16:22.518Z,0.20
2022-10-16T12:18:51.521Z,0.15
2022-10-16T12:21:20.360Z,0.20
2022-10-16T12:23:53.246Z,0.20
2022-10-16T12:26:28.859Z,0.17
2022-10-16T12:29:17.010Z,0.10
2022-10-16T12:31:54.809Z,0.10
2022-10-16T12:34:30.454Z,0.10
2022-10-16T12:37:11.497Z,0.10
2022-10-16T12:39:39.860Z,0.30
2022-10-16T12:42:25.444Z,0.10
2022-10-16T12:44:55.942Z,0.20
2022-10-16T12:47:25.785Z,0.10
2022-10-16T12:49:55.918Z,0.20
2022-10-16T12:52:30.147Z,0.03
2022-10-16T12:55:01.827Z,0.10
2022-10-16T12:57:43.517Z,0.10
2022-10-16T13:00:23.134Z,0.10
2022-10-16T13:03:10.333Z,0.10
2022-10-16T13:05:53.486Z,0.30
2022-10-16T13:08:35.444Z,0.13
2022-10-16T13:11:10.360Z,0.10
2022-10-16T13:14:07.574Z,0.13
2022-10-16T13:16:47.464Z,0.10
2022-10-16T13:19:26.883Z,0.10
2022-10-16T13:22:03.547Z,0.00
2022-10-16T13:24:49.233Z,0.10
2022-10-16T13:27:28.004Z,0.10
2022-10-16T13:30:04.745Z,0.13
2022-10-16T13:32:34.261Z,0.10
2022-10-16T13:35:03.122Z,0.10
2022-10-16T13:37:31.193Z,0.10
2022-10-16T13:40:19.933Z,0.20
2022-10-16T13:42:48.033Z,0.10
2022-10-16T13:45:23.515Z,0.20
2022-10-16T13:48:03.242Z,0.10
2022-10-16T13:50:31.377Z,0.10
2022-10-16T13:53:06.931Z,0.10
2022-10-16T13:55:35.593Z,0.00
2022-10-16T13:58:12.965Z,0.00
2022-10-16T14:00:41.783Z,0.10
2022-10-16T14:03:16.846Z,0.10
2022-10-16T14:05:51.178Z,0.10
2022-10-16T14:08:19.522Z,0.10
2022-10-16T14:10:51.556Z,0.03
2022-10-16T14:13:23.749Z,0.10
2022-10-16T14:15:55.256Z,0.00
2022-10-16T14:18:29.833Z,0.10
2022-10-16T14:21:06.648Z,0.10
2022-10-16T14:23:38.341Z,0.00
2022-10-16T14:26:25.556Z,0.10
2022-10-16T14:29:12.645Z,0.00
2022-10-16T14:31:40.849Z,0.10
2022-10-16T14:36:53.129Z,0.00
2022-10-16T14:39:23.689Z,0.00
2022-10-16T14:41:53.496Z,0.08
2022-10-16T14:44:25.641Z,0.10
2022-10-16T14:46:53.725Z,0.10
2022-10-16T14:49:23.933Z,0.10
2022-10-16T14:51:53.636Z,0.10
2022-10-16T14:54:21.821Z,0.10
2022-10-16T14:56:51.745Z,0.08
2022-10-16T14:59:24.273Z,0.10
2022-10-16T15:01:52.535Z,0.00
2022-10-16T15:04:20.600Z,0.00
2022-10-16T15:06:48.698Z,0.10
2022-10-16T15:09:18.304Z,0.00
2022-10-16T15:11:47.339Z,0.00
2022-10-16T15:16:48.621Z,0.10
2022-10-16T15:19:16.693Z,0.20
2022-10-16T15:21:45.437Z,0.10
2022-10-16T15:24:17.872Z,0.10
2022-10-16T15:26:50.872Z,0.20
2022-10-16T15:29:18.980Z,0.30
2022-10-16T15:31:48.580Z,0.30
2022-10-16T15:34:17.205Z,0.20
2022-10-16T15:36:45.280Z,0.30
2022-10-16T15:39:17.026Z,0.60
2022-10-16T15:41:48.899Z,0.65
2022-10-16T15:44:18.533Z,0.80
2022-10-16T15:46:46.612Z,1.00
2022-10-16T15:49:14.956Z,1.25
2022-10-16T15:51:43.815Z,0.90
2022-10-16T15:54:12.132Z,0.80
2022-10-16T15:56:40.197Z,0.83
2022-10-16T15:59:08.469Z,0.47
2022-10-16T16:01:38.298Z,0.70
2022-10-16T16:04:15.416Z,1.13
2022-10-16T16:06:53.971Z,1.05
2022-10-16T16:09:22.020Z,1.00
2022-10-16T16:11:52.243Z,0.90
2022-10-16T16:14:20.340Z,0.70
2022-10-16T16:16:50.015Z,0.60
2022-10-16T16:19:21.842Z,1.27
2022-10-16T16:21:50.273Z,0.75
2022-10-16T16:24:18.538Z,0.73
2022-10-16T16:26:46.637Z,0.60
2022-10-16T16:29:16.273Z,0.57
2022-10-16T16:31:45.166Z,0.73
2022-10-16T16:34:14.790Z,0.60
2022-10-16T16:36:43.009Z,0.90
2022-10-16T16:39:11.639Z,0.90
2022-10-16T16:41:39.692Z,1.57
2022-10-16T16:44:10.471Z,1.25
2022-10-16T16:46:40.458Z,1.20
2022-10-16T16:49:08.850Z,0.93
2022-10-16T16:51:40.529Z,0.60
2022-10-16T16:54:09.642Z,0.95
2022-10-16T16:56:38.193Z,0.80
2022-10-16T16:59:06.431Z,0.80
2022-10-16T17:01:34.478Z,1.30
2022-10-16T17:04:03.329Z,1.35
2022-10-16T17:06:31.646Z,1.40
2022-10-16T17:09:03.642Z,1.65
2022-10-16T17:11:32.484Z,1.60
2022-10-16T17:14:01.635Z,1.60
2022-10-16T17:16:31.857Z,0.93
2022-10-16T17:19:02.340Z,1.17
2022-10-16T17:21:32.942Z,1.17
2022-10-16T17:24:02.908Z,1.58
2022-10-16T17:26:31.603Z,1.13
2022-10-16T17:29:01.539Z,1.40
2022-10-16T17:31:32.016Z,1.10
2022-10-16T17:34:01.086Z,1.02
2022-10-16T17:36:31.526Z,1.08
2022-10-16T17:39:01.743Z,1.70
2022-10-16T17:41:31.466Z,1.00
2022-10-16T17:43:59.739Z,0.80
2022-10-16T17:46:28.677Z,1.10
2022-10-16T17:48:57.115Z,1.35
2022-10-16T17:51:27.952Z,0.80
2022-10-16T17:53:58.709Z,0.88
2022-10-16T17:56:27.774Z,0.70
2022-10-16T17:58:59.893Z,0.52
2022-10-16T18:01:29.771Z,0.70
2022-10-16T18:03:59.943Z,0.65
2022-10-16T18:06:29.088Z,0.60
2022-10-16T18:08:59.154Z,0.63
2022-10-16T18:11:28.326Z,0.50
2022-10-16T18:13:58.760Z,0.90
2022-10-16T18:16:28.222Z,0.52
2022-10-16T18:18:58.099Z,0.80
2022-10-16T18:21:28.317Z,0.80
2022-10-16T18:23:56.899Z,1.05
2022-10-16T18:26:25.937Z,0.88
2022-10-16T18:28:55.161Z,1.00
2022-10-16T18:31:26.232Z,0.90
2022-10-16T18:33:55.649Z,1.20
2022-10-16T18:36:26.720Z,1.00
2022-10-16T18:38:55.428Z,0.70
2022-10-16T18:41:24.043Z,0.95
2022-10-16T18:43:52.194Z,0.85
2022-10-16T18:46:22.023Z,0.77
2022-10-16T18:48:52.322Z,0.80
2022-10-16T18:51:27.386Z,1.02
2022-10-16T18:53:57.042Z,0.80
2022-10-16T18:58:54.377Z,0.82
2022-10-16T19:01:24.665Z,1.10
2022-10-16T19:03:58.841Z,0.80
2022-10-16T19:06:28.008Z,1.08
2022-10-16T19:08:56.886Z,0.90
2022-10-16T19:11:26.665Z,0.87
2022-10-16T19:16:26.284Z,0.77
2022-10-16T19:18:57.726Z,1.10
2022-10-16T19:21:27.463Z,1.17
2022-10-16T19:26:26.213Z,0.70
2022-10-16T19:28:55.915Z,0.77
2022-10-16T19:33:53.766Z,0.77
2022-10-16T19:36:25.784Z,0.80
2022-10-16T19:38:55.529Z,0.85
2022-10-16T19:41:25.366Z,0.63
2022-10-16T19:46:24.422Z,0.80
2022-10-16T19:48:56.277Z,1.00
2022-10-16T19:51:26.521Z,1.60
2022-10-16T19:53:56.976Z,1.50
2022-10-16T19:56:26.839Z,2.10
2022-10-16T20:01:24.824Z,1.73
2022-10-16T20:03:53.288Z,1.55
2022-10-16T20:06:22.256Z,1.33
2022-10-16T20:08:53.444Z,0.98
2022-10-16T20:11:23.877Z,1.00
2022-10-16T20:13:52.641Z,1.13
2022-10-16T20:16:21.300Z,1.05
2022-10-16T20:18:50.992Z,1.10
2022-10-16T20:21:21.025Z,1.55
2022-10-16T20:23:50.970Z,1.88
2022-10-16T20:28:50.720Z,1.40
2022-10-16T20:31:22.733Z,1.60
2022-10-16T20:33:51.363Z,1.58
2022-10-16T20:36:20.857Z,1.35
2022-10-16T20:38:49.066Z,1.40
2022-10-16T20:41:18.624Z,1.38
2022-10-16T20:43:50.083Z,1.45
2022-10-16T20:46:20.383Z,1.63
2022-10-16T20:48:48.551Z,0.85
2022-10-16T20:51:18.975Z,1.15
2022-10-16T20:53:48.404Z,1.05
2022-10-16T20:56:17.577Z,1.10
2022-10-16T20:58:47.508Z,1.02
2022-10-16T21:01:17.055Z,1.00
2022-10-16T21:03:46.006Z,1.23
2022-10-16T21:06:14.081Z,1.10
2022-10-16T21:08:44.341Z,0.90
2022-10-16T21:11:13.723Z,0.98
2022-10-16T21:13:42.476Z,0.90
2022-10-16T21:16:13.363Z,0.88
2022-10-16T21:18:44.600Z,1.10
2022-10-16T21:21:21.073Z,1.05
2022-10-16T21:23:49.785Z,1.13
2022-10-16T21:26:18.929Z,1.00
2022-10-16T21:28:47.178Z,0.90
2022-10-16T21:31:18.995Z,0.98
2022-10-16T21:33:47.782Z,1.10
2022-10-16T21:36:17.943Z,0.95
2022-10-16T21:41:21.976Z,0.82
2022-10-16T21:43:51.067Z,0.90
2022-10-16T21:46:23.066Z,0.80
2022-10-16T21:48:53.913Z,1.20
2022-10-16T21:51:22.000Z,0.70
2022-10-16T21:53:50.093Z,0.80
2022-10-16T21:56:19.296Z,0.60
2022-10-16T21:58:47.601Z,0.68
2022-10-16T22:01:17.614Z,0.60
2022-10-16T22:03:47.932Z,0.55
2022-10-16T22:06:18.263Z,0.88
2022-10-16T22:08:47.864Z,0.60
2022-10-16T22:11:22.192Z,0.60
2022-10-16T22:13:54.041Z,0.80
2022-10-16T22:16:26.142Z,0.80
2022-10-16T22:18:57.223Z,0.70
2022-10-16T22:21:25.835Z,0.60
2022-10-16T22:23:54.140Z,0.70
2022-10-16T22:26:22.693Z,0.60
2022-10-16T22:28:50.876Z,0.70
2022-10-16T22:31:19.212Z,0.60
2022-10-16T22:33:47.275Z,0.63
2022-10-16T22:36:16.881Z,0.70
2022-10-16T22:38:44.948Z,0.60
2022-10-16T22:41:14.725Z,0.63
2022-10-16T22:46:14.547Z,0.68
2022-10-16T22:48:42.974Z,0.70
2022-10-16T22:51:16.545Z,0.50
2022-10-16T22:53:47.976Z,0.73
2022-10-16T22:56:17.718Z,0.70
2022-10-16T22:58:46.233Z,0.50
2022-10-16T23:01:16.476Z,0.70
2022-10-16T23:03:44.755Z,0.50
2022-10-16T23:06:12.849Z,0.60
2022-10-16T23:08:41.049Z,0.60
2022-10-16T23:11:12.475Z,0.63
2022-10-16T23:13:45.055Z,0.60
2022-10-16T23:16:15.144Z,0.65
2022-10-16T23:18:43.964Z,0.60
2022-10-16T23:21:14.971Z,0.65
2022-10-16T23:23:44.502Z,0.70
2022-10-16T23:26:16.375Z,0.60
2022-10-16T23:28:44.786Z,0.70
2022-10-16T23:31:14.313Z,0.50
2022-10-16T23:33:42.819Z,0.50
2022-10-16T23:36:16.196Z,0.73
2022-10-16T23:38:44.473Z,0.52
2022-10-16T23:41:14.799Z,0.73
2022-10-16T23:43:43.203Z,0.47
2022-10-16T23:46:12.675Z,0.60
2022-10-16T23:48:41.340Z,0.60
2022-10-16T23:51:10.078Z,0.40
2022-10-16T23:53:38.773Z,0.50
2022-10-16T23:56:07.268Z,0.70
2022-10-16T23:58:37.191Z,0.70
